Time;durP1;ratioP1;P1;durP2;ratioP2;P2;SDS_P1;SDS_P2;PMS_P1;PMS_P2;Temp;Humidity;BMP_temperature;BMP_pressure;BME280_temperature;BME280_humidity;BME280_pressure;Samples;Min_cycle;Max_cycle;Signal;HPM_P1;HPM_P2
2022/01/18 00:00:40;;;;;;;7.13;3.00;;;;;;;;;;5031686;28;20212;-62
2022/01/18 00:03:07;;;;;;;7.60;2.90;;;;;;;;;;5032348;28;20628;-62
2022/01/18 00:05:34;;;;;;;2.97;2.50;;;;;;;;;;5031830;28;20207;-62
2022/01/18 00:08:01;;;;;;;5.37;3.20;;;;;;;;;;5031837;28;20671;-62
2022/01/18 00:10:30;;;;;;;3.47;2.70;;;;;;;;;;5030921;28;20213;-61
2022/01/18 00:13:12;;;;;;;5.03;3.23;;;;;;;;;;5032276;28;20205;-62
2022/01/18 00:15:54;;;;;;;3.47;2.60;;;;;;;;;;5031805;28;20208;-61
2022/01/18 00:18:21;;;;;;;5.80;2.77;;;;;;;;;;5031774;28;20279;-62
2022/01/18 00:21:13;;;;;;;3.37;2.10;;;;;;;;;;5031779;28;20204;-63
2022/01/18 00:23:41;;;;;;;4.07;2.57;;;;;;;;;;5030132;28;20215;-62
2022/01/18 00:26:09;;;;;;;6.53;3.03;;;;;;;;;;5031364;28;20317;-63
2022/01/18 00:28:37;;;;;;;3.57;2.77;;;;;;;;;;5029228;28;20305;-63
2022/01/18 00:33:59;;;;;;;4.43;2.53;;;;;;;;;;5024937;28;20650;-62
2022/01/18 00:36:29;;;;;;;3.33;2.27;;;;;;;;;;5031384;28;20663;-63
2022/01/18 00:38:57;;;;;;;4.83;2.03;;;;;;;;;;5031079;28;20204;-63
2022/01/18 00:41:25;;;;;;;2.80;2.60;;;;;;;;;;5031100;28;20266;-63
2022/01/18 00:43:53;;;;;;;7.03;2.90;;;;;;;;;;5030049;28;20247;-63
2022/01/18 00:46:21;;;;;;;2.40;2.13;;;;;;;;;;5030991;28;20258;-63
2022/01/18 00:48:48;;;;;;;2.33;2.23;;;;;;;;;;5021536;28;20203;-63
2022/01/18 00:51:15;;;;;;;2.93;2.43;;;;;;;;;;5031206;28;20278;-63
2022/01/18 00:53:44;;;;;;;5.23;2.77;;;;;;;;;;5030708;28;20200;-63
2022/01/18 00:56:20;;;;;;;2.97;2.50;;;;;;;;;;5031019;28;20279;-63
2022/01/18 00:58:48;;;;;;;3.87;2.47;;;;;;;;;;5031358;28;20207;-63
2022/01/18 01:01:16;;;;;;;4.30;2.80;;;;;;;;;;5030714;28;20211;-62
2022/01/18 01:03:44;;;;;;;5.20;2.50;;;;;;;;;;5031106;28;20216;-62
2022/01/18 01:06:12;;;;;;;4.77;2.70;;;;;;;;;;5030230;28;20208;-63
2022/01/18 01:08:39;;;;;;;5.73;2.83;;;;;;;;;;5030455;28;20613;-63
2022/01/18 01:11:07;;;;;;;3.53;2.80;;;;;;;;;;5029999;28;20694;-63
2022/01/18 01:13:34;;;;;;;6.30;3.50;;;;;;;;;;5030440;28;20212;-63
2022/01/18 01:16:13;;;;;;;4.37;2.37;;;;;;;;;;5030450;28;20216;-63
2022/01/18 01:18:49;;;;;;;5.23;2.90;;;;;;;;;;5030623;28;20208;-63
2022/01/18 01:32:43;;;;;;;5.03;3.10;;;;;;;;;;5030064;28;20631;-62
2022/01/18 01:35:15;;;;;;;4.60;3.17;;;;;;;;;;5029982;28;20583;-62
2022/01/18 01:43:20;;;;;;;8.70;4.27;;;;;;;;;;5030558;28;20258;-62
2022/01/18 01:45:49;;;;;;;7.53;3.80;;;;;;;;;;5029274;28;20200;-62
2022/01/18 01:48:17;;;;;;;5.00;3.50;;;;;;;;;;5029989;28;20770;-62
2022/01/18 01:50:48;;;;;;;5.47;3.60;;;;;;;;;;5029498;28;20224;-63
2022/01/18 01:53:17;;;;;;;10.80;3.80;;;;;;;;;;5030043;28;20201;-62
2022/01/18 01:55:45;;;;;;;6.57;4.33;;;;;;;;;;5029495;28;20216;-63
2022/01/18 01:58:12;;;;;;;3.63;3.33;;;;;;;;;;5029802;28;20205;-63
2022/01/18 02:00:44;;;;;;;7.33;3.93;;;;;;;;;;5029725;28;20212;-63
2022/01/18 02:03:11;;;;;;;4.90;3.33;;;;;;;;;;5029656;28;20258;-62
2022/01/18 02:05:38;;;;;;;8.77;4.13;;;;;;;;;;5028687;28;20209;-62
2022/01/18 02:08:07;;;;;;;6.33;3.73;;;;;;;;;;5028548;28;20221;-63
2022/01/18 02:10:35;;;;;;;10.83;4.43;;;;;;;;;;5028674;28;20201;-63
2022/01/18 02:13:03;;;;;;;7.33;4.10;;;;;;;;;;5012406;28;20251;-63
2022/01/18 02:15:30;;;;;;;7.77;4.70;;;;;;;;;;5028281;28;20212;-62
2022/01/18 02:23:29;;;;;;;5.33;3.33;;;;;;;;;;5020363;28;20215;-63
2022/01/18 02:25:56;;;;;;;5.63;4.40;;;;;;;;;;5027682;28;20208;-64
2022/01/18 02:28:24;;;;;;;16.60;4.77;;;;;;;;;;5027463;28;20540;-63
2022/01/18 02:30:52;;;;;;;9.33;5.07;;;;;;;;;;5027983;28;20207;-62
2022/01/18 02:33:19;;;;;;;5.83;4.33;;;;;;;;;;5025581;28;20240;-63
2022/01/18 02:35:48;;;;;;;11.67;5.40;;;;;;;;;;5027474;28;20683;-63
2022/01/18 02:38:15;;;;;;;9.00;5.10;;;;;;;;;;5029187;28;20937;-63
2022/01/18 02:40:43;;;;;;;6.40;4.20;;;;;;;;;;5029397;28;20748;-63
2022/01/18 02:45:56;;;;;;;7.37;4.37;;;;;;;;;;5028914;28;20612;-63
2022/01/18 02:48:24;;;;;;;8.43;4.63;;;;;;;;;;5029222;28;20255;-62
2022/01/18 02:50:52;;;;;;;9.33;4.83;;;;;;;;;;5021133;28;20232;-62
2022/01/18 02:53:19;;;;;;;6.83;4.07;;;;;;;;;;5028852;28;20211;-62
2022/01/18 02:55:50;;;;;;;9.87;5.17;;;;;;;;;;5028111;28;20821;-62
2022/01/18 02:58:24;;;;;;;9.53;4.83;;;;;;;;;;5029149;28;20659;-63
2022/01/18 03:03:33;;;;;;;8.97;5.53;;;;;;;;;;5027618;28;20228;-62
2022/01/18 03:06:02;;;;;;;8.33;5.07;;;;;;;;;;5027179;28;20223;-62
2022/01/18 03:08:30;;;;;;;9.63;4.97;;;;;;;;;;5027779;28;20698;-62
2022/01/18 03:10:57;;;;;;;8.87;4.73;;;;;;;;;;5028325;28;20623;-63
2022/01/18 03:13:24;;;;;;;9.23;4.97;;;;;;;;;;5028812;28;20266;-65
2022/01/18 03:15:51;;;;;;;9.70;4.13;;;;;;;;;;5028890;28;20254;-62
2022/01/18 03:18:18;;;;;;;6.33;4.90;;;;;;;;;;5028660;28;20250;-62
2022/01/18 03:20:46;;;;;;;10.80;5.53;;;;;;;;;;5028750;28;20302;-62
2022/01/18 03:23:18;;;;;;;7.83;5.17;;;;;;;;;;5028335;28;20294;-62
2022/01/18 03:28:27;;;;;;;7.87;5.00;;;;;;;;;;5028031;28;20733;-62
2022/01/18 03:30:57;;;;;;;6.13;4.57;;;;;;;;;;5027821;28;20212;-63
2022/01/18 03:33:25;;;;;;;10.60;4.43;;;;;;;;;;5028410;28;20615;-62
2022/01/18 03:35:53;;;;;;;8.23;4.83;;;;;;;;;;5028673;28;20265;-62
2022/01/18 03:38:29;;;;;;;5.57;3.83;;;;;;;;;;5028264;28;20196;-61
2022/01/18 03:40:56;;;;;;;9.80;4.57;;;;;;;;;;5028749;28;20207;-61
2022/01/18 03:43:23;;;;;;;7.67;4.33;;;;;;;;;;5009166;28;20220;-62
2022/01/18 03:45:54;;;;;;;5.70;4.20;;;;;;;;;;5017592;28;20205;-63
2022/01/18 03:48:28;;;;;;;9.60;5.17;;;;;;;;;;5028246;28;20224;-63
2022/01/18 03:50:55;;;;;;;11.83;5.37;;;;;;;;;;5027982;28;20725;-63
2022/01/18 03:53:23;;;;;;;8.30;4.50;;;;;;;;;;5028439;28;20258;-63
2022/01/18 03:55:51;;;;;;;4.33;3.80;;;;;;;;;;5027781;28;20212;-63
2022/01/18 03:58:18;;;;;;;5.83;4.40;;;;;;;;;;5028100;28;20258;-62
2022/01/18 04:00:45;;;;;;;8.30;4.77;;;;;;;;;;5028470;28;20246;-63
2022/01/18 04:03:12;;;;;;;9.83;5.37;;;;;;;;;;5028528;28;20204;-62
2022/01/18 04:05:39;;;;;;;7.37;4.77;;;;;;;;;;5028145;28;20690;-63
2022/01/18 04:08:06;;;;;;;9.03;5.10;;;;;;;;;;5027873;28;20775;-62
2022/01/18 04:10:34;;;;;;;7.93;5.03;;;;;;;;;;5027871;28;20663;-62
2022/01/18 04:13:01;;;;;;;5.87;4.53;;;;;;;;;;5028321;28;20239;-62
2022/01/18 04:15:30;;;;;;;9.20;4.87;;;;;;;;;;5028234;28;20266;-62
2022/01/18 04:18:14;;;;;;;7.50;5.07;;;;;;;;;;5028129;28;20288;-62
2022/01/18 04:28:58;;;;;;;9.73;4.73;;;;;;;;;;5019342;28;20234;-62
2022/01/18 04:31:25;;;;;;;9.50;5.67;;;;;;;;;;5031250;28;20574;-63
2022/01/18 04:33:52;;;;;;;11.03;5.27;;;;;;;;;;5031384;28;20243;-63
2022/01/18 04:36:19;;;;;;;9.30;5.43;;;;;;;;;;5031649;28;20212;-63
2022/01/18 04:38:47;;;;;;;10.90;5.40;;;;;;;;;;5031173;28;20212;-63
2022/01/18 04:41:18;;;;;;;12.43;5.93;;;;;;;;;;5031376;28;20266;-63
2022/01/18 04:43:53;;;;;;;8.27;4.73;;;;;;;;;;5031388;28;20200;-63
2022/01/18 04:49:06;;;;;;;5.50;4.03;;;;;;;;;;5030996;28;20234;-63
2022/01/18 04:51:33;;;;;;;9.90;5.30;;;;;;;;;;5031261;28;20286;-60
2022/01/18 04:54:02;;;;;;;5.90;4.47;;;;;;;;;;5031113;28;20667;-61
2022/01/18 04:57:51;;;;;;;9.27;4.80;;;;;;;;;;5030619;28;20204;-62
2022/01/18 04:59:18;;;;;;;8.83;4.50;;;;;;;;;;5030461;28;20216;-63
2022/01/18 05:01:46;;;;;;;8.13;4.67;;;;;;;;;;5029931;28;20204;-63
2022/01/18 05:04:13;;;;;;;11.20;4.80;;;;;;;;;;5030148;28;20239;-63
2022/01/18 05:06:42;;;;;;;7.67;4.90;;;;;;;;;;5030418;28;20274;-61
2022/01/18 05:09:11;;;;;;;10.67;4.70;;;;;;;;;;5030790;28;20261;-61
2022/01/18 05:11:47;;;;;;;8.57;5.07;;;;;;;;;;5030356;28;20212;-61
2022/01/18 05:14:24;;;;;;;9.37;4.60;;;;;;;;;;5031427;28;20313;-61
2022/01/18 05:16:58;;;;;;;11.60;4.27;;;;;;;;;;5030327;28;20211;-61
2022/01/18 05:19:38;;;;;;;4.73;4.27;;;;;;;;;;5030621;28;20247;-61
2022/01/18 05:24:50;;;;;;;7.03;3.87;;;;;;;;;;5027441;28;20212;-61
2022/01/18 05:27:18;;;;;;;7.37;3.97;;;;;;;;;;5031101;28;20724;-61
2022/01/18 05:29:48;;;;;;;7.37;4.43;;;;;;;;;;5030129;28;20228;-61
2022/01/18 05:32:15;;;;;;;7.73;4.80;;;;;;;;;;5029840;28;20212;-61
2022/01/18 05:34:44;;;;;;;8.47;5.17;;;;;;;;;;5030814;28;20294;-61
2022/01/18 05:37:12;;;;;;;8.83;4.77;;;;;;;;;;5030785;28;20220;-61
2022/01/18 05:39:39;;;;;;;8.67;4.87;;;;;;;;;;5030010;28;20301;-61
2022/01/18 05:42:06;;;;;;;8.27;5.03;;;;;;;;;;5030153;28;20258;-61
2022/01/18 05:44:35;;;;;;;12.40;5.67;;;;;;;;;;5030598;28;20918;-61
2022/01/18 05:47:02;;;;;;;7.50;4.87;;;;;;;;;;5030864;28;20204;-61
2022/01/18 05:49:29;;;;;;;9.47;4.70;;;;;;;;;;5030247;28;20250;-61
2022/01/18 05:51:56;;;;;;;15.87;5.90;;;;;;;;;;5030626;28;20258;-61
2022/01/18 05:54:23;;;;;;;7.97;4.80;;;;;;;;;;5029609;28;20623;-61
2022/01/18 05:56:50;;;;;;;8.67;5.13;;;;;;;;;;5030546;28;20208;-61
2022/01/18 05:59:22;;;;;;;10.67;4.77;;;;;;;;;;5028141;28;20201;-61
2022/01/18 06:02:01;;;;;;;9.57;4.97;;;;;;;;;;5028976;28;20219;-61
2022/01/18 06:07:13;;;;;;;5.30;4.03;;;;;;;;;;5014221;28;20553;-61
2022/01/18 06:09:40;;;;;;;7.67;5.33;;;;;;;;;;5009724;28;20240;-61
2022/01/18 06:12:07;;;;;;;8.20;5.17;;;;;;;;;;5026847;28;20629;-61
2022/01/18 06:14:34;;;;;;;9.47;4.67;;;;;;;;;;5028080;28;20658;-61
2022/01/18 06:17:03;;;;;;;8.87;4.53;;;;;;;;;;5029277;28;20208;-61
2022/01/18 06:19:30;;;;;;;8.10;4.57;;;;;;;;;;5029083;28;20636;-62
2022/01/18 06:21:57;;;;;;;8.37;4.93;;;;;;;;;;5028826;28;20212;-63
2022/01/18 06:24:24;;;;;;;9.37;5.23;;;;;;;;;;5029477;28;20223;-61
2022/01/18 06:26:51;;;;;;;9.63;5.50;;;;;;;;;;5027811;28;20209;-61
2022/01/18 06:29:19;;;;;;;10.77;4.87;;;;;;;;;;5027683;28;20224;-60
2022/01/18 06:31:46;;;;;;;8.40;4.47;;;;;;;;;;5024836;28;20593;-61
2022/01/18 06:34:15;;;;;;;11.50;5.90;;;;;;;;;;5027455;28;20298;-61
2022/01/18 06:36:42;;;;;;;14.43;6.10;;;;;;;;;;5025826;28;20219;-60
2022/01/18 06:39:09;;;;;;;8.77;5.17;;;;;;;;;;5028384;28;20213;-60
2022/01/18 06:41:36;;;;;;;15.23;8.50;;;;;;;;;;5028123;28;20217;-61
2022/01/18 06:44:03;;;;;;;12.30;6.57;;;;;;;;;;5028492;28;20212;-61
2022/01/18 06:46:30;;;;;;;12.80;5.80;;;;;;;;;;5028352;28;20205;-61
2022/01/18 06:48:57;;;;;;;14.87;6.37;;;;;;;;;;5029012;28;20298;-61
2022/01/18 06:51:26;;;;;;;15.20;6.23;;;;;;;;;;5028076;28;20275;-61
2022/01/18 06:53:53;;;;;;;10.63;6.23;;;;;;;;;;5027063;28;20212;-61
2022/01/18 06:56:20;;;;;;;11.87;6.53;;;;;;;;;;5027190;28;20300;-61
2022/01/18 06:58:47;;;;;;;11.97;5.97;;;;;;;;;;5029035;28;20310;-61
2022/01/18 07:01:15;;;;;;;10.13;5.77;;;;;;;;;;5029076;28;20354;-61
2022/01/18 07:03:43;;;;;;;12.67;6.03;;;;;;;;;;5028998;28;20217;-61
2022/01/18 07:06:10;;;;;;;9.07;5.33;;;;;;;;;;5028699;28;20216;-60
2022/01/18 07:08:38;;;;;;;9.33;5.37;;;;;;;;;;5028663;28;20232;-61
2022/01/18 07:11:07;;;;;;;10.60;5.23;;;;;;;;;;5028823;28;20296;-61
2022/01/18 07:13:34;;;;;;;7.33;4.63;;;;;;;;;;5028651;28;20216;-61
2022/01/18 07:16:01;;;;;;;10.30;5.27;;;;;;;;;;5028597;28;20216;-61
2022/01/18 07:18:28;;;;;;;13.00;5.53;;;;;;;;;;5028730;28;20262;-60
2022/01/18 07:20:56;;;;;;;9.67;5.33;;;;;;;;;;5028565;28;20263;-61
2022/01/18 07:23:23;;;;;;;10.50;5.53;;;;;;;;;;5028335;28;20211;-61
2022/01/18 07:25:52;;;;;;;9.97;6.23;;;;;;;;;;5027664;28;20560;-61
2022/01/18 07:28:20;;;;;;;9.73;5.60;;;;;;;;;;5028466;28;20667;-61
2022/01/18 07:30:48;;;;;;;9.00;5.03;;;;;;;;;;5028550;28;20262;-61
2022/01/18 07:33:15;;;;;;;8.13;5.30;;;;;;;;;;5028346;28;20773;-61
2022/01/18 07:35:42;;;;;;;11.43;5.90;;;;;;;;;;5028560;28;20258;-62
2022/01/18 07:38:12;;;;;;;15.37;6.83;;;;;;;;;;5028522;28;20208;-62
2022/01/18 07:40:40;;;;;;;10.07;5.43;;;;;;;;;;5027742;28;20295;-61
2022/01/18 07:43:09;;;;;;;14.20;6.50;;;;;;;;;;5028374;28;20700;-61
2022/01/18 07:45:36;;;;;;;12.90;6.53;;;;;;;;;;5028446;28;20219;-61
2022/01/18 07:48:03;;;;;;;16.10;6.43;;;;;;;;;;5028487;28;20216;-62
2022/01/18 07:50:30;;;;;;;12.00;7.43;;;;;;;;;;5028287;28;20232;-61
2022/01/18 07:52:57;;;;;;;15.37;7.37;;;;;;;;;;5028475;28;20254;-62
2022/01/18 07:55:24;;;;;;;11.87;6.30;;;;;;;;;;5031473;28;20216;-62
2022/01/18 07:57:51;;;;;;;12.73;6.00;;;;;;;;;;5032316;28;20785;-61
2022/01/18 08:00:20;;;;;;;10.07;5.97;;;;;;;;;;5032293;28;20219;-61
2022/01/18 08:02:47;;;;;;;13.23;6.90;;;;;;;;;;5032131;28;20208;-62
2022/01/18 08:05:14;;;;;;;19.67;7.97;;;;;;;;;;5032067;28;20217;-62
2022/01/18 08:07:41;;;;;;;15.67;7.30;;;;;;;;;;5032344;28;20216;-62
2022/01/18 08:10:09;;;;;;;15.13;7.17;;;;;;;;;;5031834;28;20649;-61
2022/01/18 08:12:37;;;;;;;18.07;7.70;;;;;;;;;;5031942;28;20275;-61
2022/01/18 08:15:13;;;;;;;18.87;7.83;;;;;;;;;;5030819;28;20446;-63
2022/01/18 08:17:42;;;;;;;13.53;6.73;;;;;;;;;;5032000;28;20216;-63
2022/01/18 08:20:13;;;;;;;17.83;7.03;;;;;;;;;;5031776;28;20211;-62
2022/01/18 08:22:40;;;;;;;15.80;7.37;;;;;;;;;;5031643;28;20208;-63
2022/01/18 08:25:08;;;;;;;17.43;7.27;;;;;;;;;;5031504;28;20211;-62
2022/01/18 08:27:35;;;;;;;26.67;7.37;;;;;;;;;;5031463;28;20216;-62
2022/01/18 08:30:03;;;;;;;11.60;6.97;;;;;;;;;;5030774;28;20239;-62
2022/01/18 08:32:30;;;;;;;14.63;7.63;;;;;;;;;;5031543;28;20239;-62
2022/01/18 08:34:58;;;;;;;8.90;6.00;;;;;;;;;;5031327;28;20256;-63
2022/01/18 08:37:25;;;;;;;15.73;6.37;;;;;;;;;;5031314;28;20266;-62
2022/01/18 08:39:53;;;;;;;16.97;7.33;;;;;;;;;;5031340;28;20665;-63
2022/01/18 08:42:20;;;;;;;9.70;6.77;;;;;;;;;;5031382;28;20212;-62
2022/01/18 08:44:48;;;;;;;13.60;6.97;;;;;;;;;;5031127;28;20667;-62
2022/01/18 08:47:15;;;;;;;12.00;6.60;;;;;;;;;;5030302;28;20208;-63
2022/01/18 08:49:42;;;;;;;14.60;7.43;;;;;;;;;;5011277;28;20241;-62
2022/01/18 08:52:11;;;;;;;14.43;6.90;;;;;;;;;;5021628;28;20216;-63
2022/01/18 08:54:38;;;;;;;19.77;8.77;;;;;;;;;;5030991;28;20212;-63
2022/01/18 08:57:05;;;;;;;13.87;7.00;;;;;;;;;;5031000;28;20270;-63
2022/01/18 08:59:35;;;;;;;14.63;7.47;;;;;;;;;;5030654;28;20282;-62
2022/01/18 09:02:02;;;;;;;12.87;6.90;;;;;;;;;;5030376;28;20212;-62
2022/01/18 09:04:29;;;;;;;11.30;6.27;;;;;;;;;;5010544;28;20209;-62
2022/01/18 09:06:57;;;;;;;13.77;7.13;;;;;;;;;;5010571;28;20212;-62
2022/01/18 09:09:26;;;;;;;11.37;6.83;;;;;;;;;;5010427;28;20331;-63
2022/01/18 09:11:53;;;;;;;10.67;6.00;;;;;;;;;;5017678;28;20216;-62
2022/01/18 09:14:20;;;;;;;10.30;5.80;;;;;;;;;;5030221;28;20598;-62
2022/01/18 09:16:47;;;;;;;14.10;7.00;;;;;;;;;;5029768;28;20744;-62
2022/01/18 09:19:15;;;;;;;12.47;6.33;;;;;;;;;;5029988;28;20208;-62
2022/01/18 09:21:44;;;;;;;11.50;6.00;;;;;;;;;;5029944;28;20212;-62
2022/01/18 09:24:11;;;;;;;11.10;6.57;;;;;;;;;;5029801;28;20213;-62
2022/01/18 09:26:40;;;;;;;13.53;6.30;;;;;;;;;;5029656;28;20215;-64
2022/01/18 09:29:09;;;;;;;13.93;6.53;;;;;;;;;;5029709;28;20228;-63
2022/01/18 09:31:36;;;;;;;13.30;6.60;;;;;;;;;;5028738;28;20259;-62
2022/01/18 09:34:03;;;;;;;10.90;6.67;;;;;;;;;;5029528;28;20251;-69
2022/01/18 09:36:30;;;;;;;10.10;6.10;;;;;;;;;;5030284;28;20623;-63
2022/01/18 09:38:57;;;;;;;9.47;5.33;;;;;;;;;;5030616;28;20212;-63
2022/01/18 09:41:28;;;;;;;9.03;5.63;;;;;;;;;;5030557;28;20212;-62
2022/01/18 09:43:56;;;;;;;13.27;5.77;;;;;;;;;;5030386;28;20204;-62
2022/01/18 09:46:24;;;;;;;13.07;6.07;;;;;;;;;;5030311;28;20224;-62
2022/01/18 09:48:52;;;;;;;13.20;6.43;;;;;;;;;;5029911;28;20216;-62
2022/01/18 09:51:19;;;;;;;13.57;6.80;;;;;;;;;;5029034;28;20278;-61
2022/01/18 09:53:46;;;;;;;11.47;5.77;;;;;;;;;;5030090;28;20963;-63
2022/01/18 09:56:13;;;;;;;13.00;6.30;;;;;;;;;;5029908;28;20212;-62
2022/01/18 09:58:41;;;;;;;11.33;6.00;;;;;;;;;;5028876;28;20216;-63
2022/01/18 10:01:09;;;;;;;7.27;5.27;;;;;;;;;;5029272;28;20209;-62
2022/01/18 10:03:37;;;;;;;10.43;5.40;;;;;;;;;;5028187;28;20211;-61
2022/01/18 10:06:05;;;;;;;10.70;3.97;;;;;;;;;;5028913;28;20210;-61
2022/01/18 10:08:32;;;;;;;5.37;3.53;;;;;;;;;;5026213;28;20299;-61
2022/01/18 10:11:02;;;;;;;8.97;4.97;;;;;;;;;;5028111;28;20669;-61
2022/01/18 10:13:29;;;;;;;9.20;4.63;;;;;;;;;;5028077;28;20231;-61
2022/01/18 10:16:00;;;;;;;12.73;5.60;;;;;;;;;;5028264;28;20580;-61
2022/01/18 10:18:37;;;;;;;7.23;4.10;;;;;;;;;;5028085;28;20208;-62
2022/01/18 10:21:06;;;;;;;5.43;4.73;;;;;;;;;;5028560;28;20204;-61
2022/01/18 10:23:33;;;;;;;2.93;2.57;;;;;;;;;;5027820;28;20384;-62
2022/01/18 10:26:15;;;;;;;12.10;3.57;;;;;;;;;;5028333;28;20200;-61
2022/01/18 10:28:42;;;;;;;4.63;3.17;;;;;;;;;;5028540;28;20301;-61
2022/01/18 10:31:25;;;;;;;6.30;3.13;;;;;;;;;;5028355;28;20235;-62
2022/01/18 10:34:11;;;;;;;6.60;3.80;;;;;;;;;;5027925;28;20235;-62
2022/01/18 10:36:51;;;;;;;14.40;5.00;;;;;;;;;;5027947;28;20212;-62
2022/01/18 10:39:21;;;;;;;5.27;3.97;;;;;;;;;;5027887;28;20285;-62
2022/01/18 10:41:48;;;;;;;10.50;4.53;;;;;;;;;;5027737;28;20219;-61
2022/01/18 10:44:17;;;;;;;6.40;4.60;;;;;;;;;;5027925;28;20212;-62
2022/01/18 10:46:45;;;;;;;9.83;4.53;;;;;;;;;;5028937;28;20266;-62
2022/01/18 10:49:25;;;;;;;12.90;4.90;;;;;;;;;;5028684;28;20615;-62
2022/01/18 10:51:57;;;;;;;18.27;4.90;;;;;;;;;;5028628;28;20212;-59
2022/01/18 10:54:35;;;;;;;7.30;4.60;;;;;;;;;;5028842;28;20239;-62
2022/01/18 10:57:03;;;;;;;8.03;4.40;;;;;;;;;;5028617;28;20262;-62
2022/01/18 10:59:30;;;;;;;4.20;3.70;;;;;;;;;;5028722;28;20212;-62
2022/01/18 11:02:09;;;;;;;7.50;4.13;;;;;;;;;;5028693;28;20262;-62
2022/01/18 11:04:38;;;;;;;9.57;4.57;;;;;;;;;;5028124;28;20211;-62
2022/01/18 11:07:06;;;;;;;6.90;4.10;;;;;;;;;;5028023;28;20242;-63
2022/01/18 11:09:33;;;;;;;5.07;3.60;;;;;;;;;;5027806;28;20562;-61
2022/01/18 11:12:01;;;;;;;6.07;4.43;;;;;;;;;;5028102;28;20219;-62
2022/01/18 11:14:30;;;;;;;8.90;4.27;;;;;;;;;;5028236;28;20371;-61
2022/01/18 11:16:58;;;;;;;4.80;4.07;;;;;;;;;;5027988;28;20208;-61
2022/01/18 11:19:32;;;;;;;7.13;4.63;;;;;;;;;;5028015;28;20216;-62
2022/01/18 11:22:01;;;;;;;7.43;4.30;;;;;;;;;;5027900;28;20277;-61
2022/01/18 11:24:29;;;;;;;4.87;3.60;;;;;;;;;;5026158;28;20200;-61
2022/01/18 11:26:57;;;;;;;6.60;4.03;;;;;;;;;;5028755;28;20224;-68
2022/01/18 11:29:26;;;;;;;4.40;3.63;;;;;;;;;;5029724;28;20208;-61
2022/01/18 11:31:53;;;;;;;10.30;4.37;;;;;;;;;;5032182;28;20204;-61
2022/01/18 11:34:25;;;;;;;6.77;4.23;;;;;;;;;;5032038;28;20741;-61
2022/01/18 11:36:53;;;;;;;4.20;3.10;;;;;;;;;;5032725;28;20220;-62
2022/01/18 11:39:22;;;;;;;3.10;2.37;;;;;;;;;;5032259;28;20208;-61
2022/01/18 11:41:49;;;;;;;4.10;2.00;;;;;;;;;;5032368;28;20278;-64
2022/01/18 11:44:17;;;;;;;3.53;1.53;;;;;;;;;;5032522;28;20216;-61
2022/01/18 11:46:48;;;;;;;0.97;0.60;;;;;;;;;;5031855;28;20682;-61
2022/01/18 11:49:19;;;;;;;2.00;0.63;;;;;;;;;;5032527;28;20218;-60
2022/01/18 11:51:48;;;;;;;0.70;0.70;;;;;;;;;;5032318;28;20243;-61
2022/01/18 11:54:26;;;;;;;4.87;1.53;;;;;;;;;;5032352;28;20659;-63
2022/01/18 11:56:54;;;;;;;1.97;1.87;;;;;;;;;;5032427;28;20208;-61
2022/01/18 11:59:22;;;;;;;3.40;1.70;;;;;;;;;;5031961;28;20262;-61
2022/01/18 12:01:50;;;;;;;1.40;1.30;;;;;;;;;;5027936;28;20215;-61
2022/01/18 12:04:32;;;;;;;3.10;1.57;;;;;;;;;;5027410;28;20689;-61
2022/01/18 12:06:59;;;;;;;1.90;1.20;;;;;;;;;;5031066;28;20630;-61
2022/01/18 12:09:41;;;;;;;1.17;1.07;;;;;;;;;;5029402;28;20212;-61
2022/01/18 12:12:29;;;;;;;0.90;0.90;;;;;;;;;;5030203;28;20751;-62
2022/01/18 12:14:56;;;;;;;3.27;1.00;;;;;;;;;;5030436;28;20663;-63
2022/01/18 12:17:23;;;;;;;0.50;0.50;;;;;;;;;;5031744;28;20208;-61
2022/01/18 12:19:50;;;;;;;1.03;0.80;;;;;;;;;;5031922;28;20255;-64
2022/01/18 12:22:17;;;;;;;1.53;1.20;;;;;;;;;;5031667;28;20208;-63
2022/01/18 12:24:47;;;;;;;0.90;0.87;;;;;;;;;;5031278;28;20287;-63
2022/01/18 12:27:31;;;;;;;1.53;1.43;;;;;;;;;;5024470;28;20659;-62
2022/01/18 12:30:26;;;;;;;1.90;1.67;;;;;;;;;;5025559;28;20208;-62
2022/01/18 12:33:08;;;;;;;1.40;1.30;;;;;;;;;;5027643;28;20307;-61
2022/01/18 12:35:35;;;;;;;1.57;1.47;;;;;;;;;;5027001;28;20360;-61
2022/01/18 12:38:06;;;;;;;1.60;1.00;;;;;;;;;;5027551;28;20343;-62
2022/01/18 12:40:36;;;;;;;1.83;1.70;;;;;;;;;;5026660;28;20300;-60
2022/01/18 12:45:50;;;;;;;6.17;1.50;;;;;;;;;;5027601;28;20211;-60
2022/01/18 12:48:18;;;;;;;1.33;1.33;;;;;;;;;;5027246;28;20579;-61
2022/01/18 12:50:46;;;;;;;3.57;2.10;;;;;;;;;;5026868;28;20681;-61
2022/01/18 12:53:14;;;;;;;3.40;1.70;;;;;;;;;;5027418;28;20216;-61
2022/01/18 12:55:45;;;;;;;3.60;2.10;;;;;;;;;;5025283;28;20219;-59
2022/01/18 12:58:13;;;;;;;4.30;2.00;;;;;;;;;;5026955;28;20216;-60
2022/01/18 13:00:42;;;;;;;1.47;1.37;;;;;;;;;;5026388;28;20250;-60
2022/01/18 13:03:10;;;;;;;1.43;1.37;;;;;;;;;;5026974;28;20238;-60
2022/01/18 13:05:38;;;;;;;2.43;1.47;;;;;;;;;;5026467;28;20212;-59
2022/01/18 13:08:05;;;;;;;1.33;1.33;;;;;;;;;;5026471;28;20208;-60
2022/01/18 13:10:37;;;;;;;3.93;3.10;;;;;;;;;;5026355;28;20232;-60
2022/01/18 13:13:06;;;;;;;1.90;1.80;;;;;;;;;;5026556;28;20212;-60
2022/01/18 13:24:45;;;;;;;1.83;1.73;;;;;;;;;;5022639;28;20251;-65
2022/01/18 13:27:17;;;;;;;1.53;1.47;;;;;;;;;;5013925;28;20533;-60
2022/01/18 13:29:48;;;;;;;3.90;2.43;;;;;;;;;;5025206;28;20208;-60
2022/01/18 13:32:18;;;;;;;3.80;2.10;;;;;;;;;;5025265;28;20243;-60
2022/01/18 13:34:46;;;;;;;4.13;2.20;;;;;;;;;;5025863;28;20778;-61
2022/01/18 13:37:14;;;;;;;2.93;1.67;;;;;;;;;;5025572;28;20208;-61
2022/01/18 13:39:46;;;;;;;2.93;1.70;;;;;;;;;;5025583;28;20211;-59
2022/01/18 13:42:14;;;;;;;4.53;1.93;;;;;;;;;;5025236;28;20220;-60
2022/01/18 13:45:01;;;;;;;4.13;2.03;;;;;;;;;;5025025;28;20654;-61
2022/01/18 13:47:38;;;;;;;3.13;2.17;;;;;;;;;;5024626;28;20702;-62
2022/01/18 13:50:06;;;;;;;3.33;2.43;;;;;;;;;;5025180;28;20769;-60
2022/01/18 13:52:33;;;;;;;1.70;1.60;;;;;;;;;;5024526;28;20204;-60
2022/01/18 13:55:00;;;;;;;3.57;2.17;;;;;;;;;;5025464;28;20262;-61
2022/01/18 13:57:27;;;;;;;2.37;1.60;;;;;;;;;;5025709;28;20219;-61
2022/01/18 13:59:54;;;;;;;4.57;1.63;;;;;;;;;;5025199;28;20212;-60
2022/01/18 14:02:22;;;;;;;1.70;1.50;;;;;;;;;;5024907;28;20208;-62
2022/01/18 14:05:06;;;;;;;6.97;2.03;;;;;;;;;;5025301;28;20278;-60
2022/01/18 14:07:34;;;;;;;7.27;1.70;;;;;;;;;;5024817;28;20299;-60
2022/01/18 14:10:01;;;;;;;1.70;1.60;;;;;;;;;;5025183;28;20290;-60
2022/01/18 14:12:30;;;;;;;3.03;2.07;;;;;;;;;;5024652;28;20706;-61
2022/01/18 14:14:57;;;;;;;1.73;1.63;;;;;;;;;;5025263;28;20208;-61
2022/01/18 14:17:24;;;;;;;2.67;1.57;;;;;;;;;;5024567;28;20215;-60
2022/01/18 14:20:02;;;;;;;2.30;1.77;;;;;;;;;;5025041;28;20208;-60
2022/01/18 14:22:29;;;;;;;3.07;1.50;;;;;;;;;;5024914;28;20208;-60
2022/01/18 14:24:58;;;;;;;1.53;1.43;;;;;;;;;;5025039;28;20698;-60
2022/01/18 14:27:28;;;;;;;2.90;2.10;;;;;;;;;;5024814;28;20242;-61
2022/01/18 14:29:56;;;;;;;4.80;1.87;;;;;;;;;;5024667;28;20216;-60
2022/01/18 14:32:26;;;;;;;7.50;2.00;;;;;;;;;;5004243;28;20235;-60
2022/01/18 14:34:57;;;;;;;1.47;1.37;;;;;;;;;;5005070;28;20277;-60
2022/01/18 14:37:35;;;;;;;2.40;1.50;;;;;;;;;;5004806;28;20278;-60
2022/01/18 14:40:04;;;;;;;1.33;1.23;;;;;;;;;;5014852;28;20208;-61
2022/01/18 14:42:39;;;;;;;3.40;1.60;;;;;;;;;;5025177;28;20239;-60
2022/01/18 14:45:19;;;;;;;2.67;1.60;;;;;;;;;;5024628;28;20295;-60
2022/01/18 14:47:46;;;;;;;4.40;1.90;;;;;;;;;;5024689;28;20215;-61
2022/01/18 14:50:16;;;;;;;2.07;1.83;;;;;;;;;;5024344;28;20259;-60
2022/01/18 14:52:45;;;;;;;1.43;1.33;;;;;;;;;;5024561;28;20290;-61
2022/01/18 14:55:12;;;;;;;4.73;1.30;;;;;;;;;;5024533;28;20212;-61
2022/01/18 14:57:39;;;;;;;1.67;1.23;;;;;;;;;;5022754;28;21022;-61
2022/01/18 15:00:08;;;;;;;2.40;1.60;;;;;;;;;;5019098;28;20212;-60
2022/01/18 15:02:35;;;;;;;1.20;1.10;;;;;;;;;;5023719;28;20204;-62
2022/01/18 15:05:02;;;;;;;1.57;1.47;;;;;;;;;;5023841;28;20262;-61
2022/01/18 15:07:30;;;;;;;1.30;1.30;;;;;;;;;;5011149;28;20217;-61
2022/01/18 15:09:58;;;;;;;1.80;1.70;;;;;;;;;;5018870;28;20351;-60
2022/01/18 15:12:25;;;;;;;1.10;1.00;;;;;;;;;;5017822;28;20228;-60
2022/01/18 15:14:52;;;;;;;0.90;0.90;;;;;;;;;;5008979;28;20588;-61
2022/01/18 15:17:19;;;;;;;1.83;1.30;;;;;;;;;;5005432;28;20208;-60
2022/01/18 15:19:46;;;;;;;0.90;0.90;;;;;;;;;;5004910;28;20271;-60
2022/01/18 15:22:13;;;;;;;1.77;1.10;;;;;;;;;;5015322;28;20221;-60
2022/01/18 15:24:42;;;;;;;1.20;1.00;;;;;;;;;;5018366;28;20212;-60
2022/01/18 15:27:09;;;;;;;1.17;1.07;;;;;;;;;;5011890;28;20219;-60
2022/01/18 15:29:36;;;;;;;4.10;1.07;;;;;;;;;;5023466;28;20216;-63
2022/01/18 15:32:05;;;;;;;2.87;0.97;;;;;;;;;;5015877;28;20728;-60
2022/01/18 15:34:33;;;;;;;1.10;1.10;;;;;;;;;;5007114;28;20726;-61
2022/01/18 15:37:00;;;;;;;0.73;0.73;;;;;;;;;;5015493;28;20842;-60
2022/01/18 15:39:27;;;;;;;0.87;0.70;;;;;;;;;;5018444;28;20861;-60
2022/01/18 15:41:55;;;;;;;1.17;0.87;;;;;;;;;;5016593;28;20282;-61
2022/01/18 15:44:22;;;;;;;0.77;0.77;;;;;;;;;;5017527;28;20675;-61
2022/01/18 15:46:49;;;;;;;5.73;0.80;;;;;;;;;;5018515;28;20212;-60
2022/01/18 15:49:20;;;;;;;1.10;0.73;;;;;;;;;;5006954;28;20220;-60
2022/01/18 15:51:47;;;;;;;0.70;0.70;;;;;;;;;;5011081;28;20235;-61